sensor_id;sensor_type;location;lat;lon;timestamp;pressure;altitude;pressure_sealevel;temperature;humidity
31771;BME280;18343;50.152;8.182;2023-04-08T00:00:02;97809.81;;;9.38;100.00
31771;BME280;18343;50.152;8.182;2023-04-08T00:02:50;97805.66;;;9.36;100.00
31771;BME280;18343;50.152;8.182;2023-04-08T00:05:38;97812.03;;;9.35;100.00
31771;BME280;18343;50.152;8.182;2023-04-08T00:08:30;97806.47;;;9.36;100.00
31771;BME280;18343;50.152;8.182;2023-04-08T00:11:36;97799.44;;;9.35;100.00
31771;BME280;18343;50.152;8.182;2023-04-08T00:14:26;97811.72;;;8.91;100.00
31771;BME280;18343;50.152;8.182;2023-04-08T00:17:22;97811.66;;;9.07;100.00
31771;BME280;18343;50.152;8.182;2023-04-08T00:20:10;97809.78;;;9.15;100.00
31771;BME280;18343;50.152;8.182;2023-04-08T00:22:59;97810.28;;;9.19;100.00
31771;BME280;18343;50.152;8.182;2023-04-08T00:25:55;97810.59;;;9.24;100.00
31771;BME280;18343;50.152;8.182;2023-04-08T00:28:59;97813.88;;;9.34;100.00
31771;BME280;18343;50.152;8.182;2023-04-08T00:31:46;97805.34;;;9.31;100.00
31771;BME280;18343;50.152;8.182;2023-04-08T00:34:33;97807.19;;;9.30;100.00
31771;BME280;18343;50.152;8.182;2023-04-08T00:37:29;97806.47;;;9.36;100.00
31771;BME280;18343;50.152;8.182;2023-04-08T00:40:15;97819.72;;;9.38;100.00
31771;BME280;18343;50.152;8.182;2023-04-08T00:43:20;97813.34;;;9.39;100.00
31771;BME280;18343;50.152;8.182;2023-04-08T00:46:16;97807.63;;;9.42;100.00
31771;BME280;18343;50.152;8.182;2023-04-08T00:49:02;97812.69;;;9.37;100.00
31771;BME280;18343;50.152;8.182;2023-04-08T00:51:48;97819.72;;;9.38;100.00
31771;BME280;18343;50.152;8.182;2023-04-08T00:54:40;97809.31;;;9.43;100.00
31771;BME280;18343;50.152;8.182;2023-04-08T00:57:25;97809.47;;;9.41;100.00
31771;BME280;18343;50.152;8.182;2023-04-08T01:00:16;97821.06;;;9.42;100.00
31771;BME280;18343;50.152;8.182;2023-04-08T01:03:09;97819.03;;;9.44;100.00
31771;BME280;18343;50.152;8.182;2023-04-08T01:06:24;97823.75;;;9.42;100.00
31771;BME280;18343;50.152;8.182;2023-04-08T01:09:19;97810.31;;;9.42;100.00
31771;BME280;18343;50.152;8.182;2023-04-08T01:12:25;97817.34;;;9.43;100.00
31771;BME280;18343;50.152;8.182;2023-04-08T01:15:11;97818.53;;;9.40;100.00
31771;BME280;18343;50.152;8.182;2023-04-08T01:17:57;97821.56;;;9.37;100.00
31771;BME280;18343;50.152;8.182;2023-04-08T01:20:44;97824.09;;;9.39;100.00
31771;BME280;18343;50.152;8.182;2023-04-08T01:23:38;97813.19;;;9.40;100.00
31771;BME280;18343;50.152;8.182;2023-04-08T01:26:26;97821.41;;;9.39;100.00
31771;BME280;18343;50.152;8.182;2023-04-08T01:29:12;97819.22;;;9.42;100.00
31771;BME280;18343;50.152;8.182;2023-04-08T01:32:12;97818.53;;;9.40;100.00
31771;BME280;18343;50.152;8.182;2023-04-08T01:35:04;97829.31;;;9.32;100.00
31771;BME280;18343;50.152;8.182;2023-04-08T01:37:53;97829.13;;;9.34;100.00
31771;BME280;18343;50.152;8.182;2023-04-08T01:40:44;97825.44;;;9.35;100.00
31771;BME280;18343;50.152;8.182;2023-04-08T01:43:35;97820.91;;;9.35;100.00
31771;BME280;18343;50.152;8.182;2023-04-08T01:46:29;97822.25;;;9.39;100.00
31771;BME280;18343;50.152;8.182;2023-04-08T01:49:16;97814.84;;;9.41;100.00
31771;BME280;18343;50.152;8.182;2023-04-08T01:52:19;97812.00;;;9.43;100.00
31771;BME280;18343;50.152;8.182;2023-04-08T01:55:04;97816.69;;;9.41;100.00
31771;BME280;18343;50.152;8.182;2023-04-08T01:57:58;97821.56;;;9.37;100.00
31771;BME280;18343;50.152;8.182;2023-04-08T02:00:54;97817.56;;;9.33;100.00
31771;BME280;18343;50.152;8.182;2023-04-08T02:03:47;97823.09;;;9.32;100.00
31771;BME280;18343;50.152;8.182;2023-04-08T02:06:39;97824.13;;;9.31;100.00
31771;BME280;18343;50.152;8.182;2023-04-08T02:09:38;97820.25;;;9.33;100.00
31771;BME280;18343;50.152;8.182;2023-04-08T02:12:27;97818.13;;;9.29;100.00
31771;BME280;18343;50.152;8.182;2023-04-08T02:15:12;97821.16;;;9.26;100.00
31771;BME280;18343;50.152;8.182;2023-04-08T02:18:06;97817.28;;;9.28;100.00
31771;BME280;18343;50.152;8.182;2023-04-08T02:20:58;97823.50;;;9.29;100.00
31771;BME280;18343;50.152;8.182;2023-04-08T02:23:48;97820.66;;;9.22;100.00
31771;BME280;18343;50.152;8.182;2023-04-08T02:26:36;97820.31;;;9.25;100.00
31771;BME280;18343;50.152;8.182;2023-04-08T02:29:23;97822.69;;;9.12;100.00
31771;BME280;18343;50.152;8.182;2023-04-08T02:32:12;97826.53;;;9.18;100.00
31771;BME280;18343;50.152;8.182;2023-04-08T02:35:02;97826.69;;;9.24;100.00
31771;BME280;18343;50.152;8.182;2023-04-08T02:37:48;97819.31;;;9.26;100.00
31771;BME280;18343;50.152;8.182;2023-04-08T02:40:39;97820.13;;;9.27;100.00
31771;BME280;18343;50.152;8.182;2023-04-08T02:43:24;97822.16;;;9.25;100.00
31771;BME280;18343;50.152;8.182;2023-04-08T02:46:20;97825.69;;;9.25;100.00
31771;BME280;18343;50.152;8.182;2023-04-08T02:49:07;97833.41;;;9.20;100.00
31771;BME280;18343;50.152;8.182;2023-04-08T02:51:57;97833.41;;;9.20;100.00
31771;BME280;18343;50.152;8.182;2023-04-08T02:54:52;97836.75;;;9.22;100.00
31771;BME280;18343;50.152;8.182;2023-04-08T02:57:39;97836.09;;;9.20;100.00
31771;BME280;18343;50.152;8.182;2023-04-08T03:00:27;97843.31;;;9.11;100.00
31771;BME280;18343;50.152;8.182;2023-04-08T03:03:13;97841.00;;;9.08;100.00
31771;BME280;18343;50.152;8.182;2023-04-08T03:05:57;97843.50;;;9.10;100.00
31771;BME280;18343;50.152;8.182;2023-04-08T03:08:44;97840.16;;;9.08;100.00
31771;BME280;18343;50.152;8.182;2023-04-08T03:11:31;97842.84;;;9.08;100.00
31771;BME280;18343;50.152;8.182;2023-04-08T03:14:19;97842.00;;;9.07;100.00
31771;BME280;18343;50.152;8.182;2023-04-08T03:17:08;97848.38;;;9.06;100.00
31771;BME280;18343;50.152;8.182;2023-04-08T03:19:56;97845.88;;;9.05;100.00
31771;BME280;18343;50.152;8.182;2023-04-08T03:22:47;97848.72;;;9.03;100.00
31771;BME280;18343;50.152;8.182;2023-04-08T03:25:39;97845.91;;;8.97;100.00
31771;BME280;18343;50.152;8.182;2023-04-08T03:28:24;97853.13;;;8.96;100.00
31771;BME280;18343;50.152;8.182;2023-04-08T03:31:13;97852.63;;;8.85;100.00
31771;BME280;18343;50.152;8.182;2023-04-08T03:34:03;97858.50;;;8.88;100.00
31771;BME280;18343;50.152;8.182;2023-04-08T03:36:48;97860.84;;;8.83;100.00
31771;BME280;18343;50.152;8.182;2023-04-08T03:39:36;97862.53;;;8.76;100.00
31771;BME280;18343;50.152;8.182;2023-04-08T03:42:27;97857.00;;;8.77;100.00
31771;BME280;18343;50.152;8.182;2023-04-08T03:45:18;97865.41;;;8.74;100.00
31771;BME280;18343;50.152;8.182;2023-04-08T03:48:06;97860.22;;;8.73;100.00
31771;BME280;18343;50.152;8.182;2023-04-08T03:50:52;97876.31;;;8.73;100.00
31771;BME280;18343;50.152;8.182;2023-04-08T03:53:37;97865.09;;;8.69;100.00
31771;BME280;18343;50.152;8.182;2023-04-08T03:56:25;97873.97;;;8.70;100.00
31771;BME280;18343;50.152;8.182;2023-04-08T03:59:15;97865.75;;;8.71;100.00
31771;BME280;18343;50.152;8.182;2023-04-08T04:02:03;97866.94;;;8.53;100.00
31771;BME280;18343;50.152;8.182;2023-04-08T04:04:51;97865.94;;;8.62;100.00
31771;BME280;18343;50.152;8.182;2023-04-08T04:07:41;97865.59;;;8.65;100.00
31771;BME280;18343;50.152;8.182;2023-04-08T04:10:31;97864.41;;;8.67;100.00
31771;BME280;18343;50.152;8.182;2023-04-08T04:13:20;97871.63;;;8.67;100.00
31771;BME280;18343;50.152;8.182;2023-04-08T04:16:11;97867.09;;;8.67;100.00
31771;BME280;18343;50.152;8.182;2023-04-08T04:18:59;97874.13;;;8.60;100.00
31771;BME280;18343;50.152;8.182;2023-04-08T04:21:46;97875.47;;;8.56;100.00
31771;BME280;18343;50.152;8.182;2023-04-08T04:24:35;97881.69;;;8.57;100.00
31771;BME280;18343;50.152;8.182;2023-04-08T04:27:24;97874.31;;;8.59;100.00
31771;BME280;18343;50.152;8.182;2023-04-08T04:30:15;97876.81;;;8.60;100.00
31771;BME280;18343;50.152;8.182;2023-04-08T04:33:04;97872.28;;;8.61;100.00
31771;BME280;18343;50.152;8.182;2023-04-08T04:35:56;97878.31;;;8.63;100.00
31771;BME280;18343;50.152;8.182;2023-04-08T04:38:51;97878.00;;;8.58;100.00
31771;BME280;18343;50.152;8.182;2023-04-08T04:41:43;97880.38;;;8.44;100.00
31771;BME280;18343;50.152;8.182;2023-04-08T04:44:40;97883.88;;;8.45;100.00
31771;BME280;18343;50.152;8.182;2023-04-08T04:47:37;97882.72;;;8.39;100.00
31771;BME280;18343;50.152;8.182;2023-04-08T04:50:43;97886.50;;;8.29;100.00
31771;BME280;18343;50.152;8.182;2023-04-08T04:53:30;97881.69;;;8.32;100.00
31771;BME280;18343;50.152;8.182;2023-04-08T04:56:33;97885.72;;;8.36;100.00
31771;BME280;18343;50.152;8.182;2023-04-08T04:59:28;97889.41;;;8.35;100.00
31771;BME280;18343;50.152;8.182;2023-04-08T05:02:17;97887.06;;;8.32;100.00
31771;BME280;18343;50.152;8.182;2023-04-08T05:05:06;97894.22;;;8.32;100.00
31771;BME280;18343;50.152;8.182;2023-04-08T05:08:03;97894.75;;;8.35;100.00
31771;BME280;18343;50.152;8.182;2023-04-08T05:10:50;97884.72;;;8.37;100.00
31771;BME280;18343;50.152;8.182;2023-04-08T05:13:50;97896.94;;;8.40;100.00
31771;BME280;18343;50.152;8.182;2023-04-08T05:16:35;97890.72;;;8.31;100.00
31771;BME280;18343;50.152;8.182;2023-04-08T05:19:21;97905.09;;;8.30;100.00
31771;BME280;18343;50.152;8.182;2023-04-08T05:22:13;97904.09;;;8.31;100.00
31771;BME280;18343;50.152;8.182;2023-04-08T05:25:08;97905.66;;;8.34;100.00
31771;BME280;18343;50.152;8.182;2023-04-08T05:27:56;97904.44;;;8.12;100.00
31771;BME280;18343;50.152;8.182;2023-04-08T05:30:48;97902.78;;;8.19;100.00
31771;BME280;18343;50.152;8.182;2023-04-08T05:33:38;97910.28;;;8.24;100.00
31771;BME280;18343;50.152;8.182;2023-04-08T05:36:32;97912.13;;;8.31;100.00
31771;BME280;18343;50.152;8.182;2023-04-08T05:39:31;97914.53;;;8.34;100.00
31771;BME280;18343;50.152;8.182;2023-04-08T05:42:29;97914.53;;;8.34;100.00
31771;BME280;18343;50.152;8.182;2023-04-08T05:45:21;97914.69;;;8.33;100.00
31771;BME280;18343;50.152;8.182;2023-04-08T05:48:24;97909.44;;;8.23;100.00
31771;BME280;18343;50.152;8.182;2023-04-08T05:51:28;97911.13;;;8.16;100.00
31771;BME280;18343;50.152;8.182;2023-04-08T05:54:23;97918.44;;;7.81;100.00
31771;BME280;18343;50.152;8.182;2023-04-08T05:57:17;97920.97;;;7.91;100.00
31771;BME280;18343;50.152;8.182;2023-04-08T06:00:04;97921.66;;;8.01;100.00
31771;BME280;18343;50.152;8.182;2023-04-08T06:03:33;97923.97;;;7.96;100.00
31771;BME280;18343;50.152;8.182;2023-04-08T06:06:56;97922.66;;;8.08;100.00
31771;BME280;18343;50.152;8.182;2023-04-08T06:10:02;97930.88;;;8.07;100.00
31771;BME280;18343;50.152;8.182;2023-04-08T06:13:24;97934.91;;;8.11;100.00
31771;BME280;18343;50.152;8.182;2023-04-08T06:16:35;97929.34;;;8.04;100.00
31771;BME280;18343;50.152;8.182;2023-04-08T06:19:49;97933.66;;;7.81;100.00
31771;BME280;18343;50.152;8.182;2023-04-08T06:23:25;97931.88;;;8.06;100.00
31771;BME280;18343;50.152;8.182;2023-04-08T06:27:01;97943.25;;;8.08;100.00
31771;BME280;18343;50.152;8.182;2023-04-08T06:29:51;97940.22;;;8.03;100.00
31771;BME280;18343;50.152;8.182;2023-04-08T06:32:46;97942.09;;;8.10;100.00
31771;BME280;18343;50.152;8.182;2023-04-08T06:36:01;97945.97;;;8.16;100.00
31771;BME280;18343;50.152;8.182;2023-04-08T06:38:57;97950.31;;;8.17;100.00
31771;BME280;18343;50.152;8.182;2023-04-08T06:41:55;97952.66;;;8.20;100.00
31771;BME280;18343;50.152;8.182;2023-04-08T06:45:03;97957.34;;;8.18;100.00
31771;BME280;18343;50.152;8.182;2023-04-08T06:48:18;97949.47;;;8.25;100.00
31771;BME280;18343;50.152;8.182;2023-04-08T06:51:35;97954.03;;;8.32;100.00
31771;BME280;18343;50.152;8.182;2023-04-08T06:54:51;97952.50;;;8.30;100.00
31771;BME280;18343;50.152;8.182;2023-04-08T06:58:35;97960.38;;;8.31;100.00
31771;BME280;18343;50.152;8.182;2023-04-08T07:01:46;97965.59;;;8.33;100.00
31771;BME280;18343;50.152;8.182;2023-04-08T07:06:26;97969.75;;;8.19;100.00
31771;BME280;18343;50.152;8.182;2023-04-08T07:08:35;97963.22;;;8.30;100.00
31771;BME280;18343;50.152;8.182;2023-04-08T07:11:40;97964.59;;;8.34;100.00
31771;BME280;18343;50.152;8.182;2023-04-08T07:22:12;97978.19;;;8.65;100.00
31771;BME280;18343;50.152;8.182;2023-04-08T07:25:17;97976.16;;;8.59;100.00
31771;BME280;18343;50.152;8.182;2023-04-08T07:28:33;97981.38;;;8.60;100.00
31771;BME280;18343;50.152;8.182;2023-04-08T07:32:18;97981.72;;;8.65;100.00
31771;BME280;18343;50.152;8.182;2023-04-08T07:35:35;97989.91;;;8.56;100.00
31771;BME280;18343;50.152;8.182;2023-04-08T07:39:18;97981.38;;;8.60;100.00
31771;BME280;18343;50.152;8.182;2023-04-08T07:42:16;97978.88;;;8.67;100.00
31771;BME280;18343;50.152;8.182;2023-04-08T07:45:25;97982.06;;;8.70;100.00
31771;BME280;18343;50.152;8.182;2023-04-08T07:48:20;97981.03;;;8.79;100.00
31771;BME280;18343;50.152;8.182;2023-04-08T07:51:43;97980.38;;;8.69;100.00
31771;BME280;18343;50.152;8.182;2023-04-08T07:55:15;97982.38;;;8.83;100.00
31771;BME280;18343;50.152;8.182;2023-04-08T07:58:03;97979.19;;;8.80;100.00
31771;BME280;18343;50.152;8.182;2023-04-08T08:00:57;97987.59;;;8.69;100.00
31771;BME280;18343;50.152;8.182;2023-04-08T08:03:52;97994.75;;;8.76;100.00
31771;BME280;18343;50.152;8.182;2023-04-08T08:06:48;97986.56;;;8.94;100.00
31771;BME280;18343;50.152;8.182;2023-04-08T08:09:44;97991.22;;;9.08;100.00
31771;BME280;18343;50.152;8.182;2023-04-08T08:12:32;98001.78;;;9.10;100.00
31771;BME280;18343;50.152;8.182;2023-04-08T08:15:44;97996.25;;;9.11;100.00
31771;BME280;18343;50.152;8.182;2023-04-08T08:18:46;97997.75;;;9.22;100.00
31771;BME280;18343;50.152;8.182;2023-04-08T08:21:36;98003.81;;;9.16;100.00
31771;BME280;18343;50.152;8.182;2023-04-08T08:24:34;98008.44;;;9.38;100.00
31771;BME280;18343;50.152;8.182;2023-04-08T08:27:25;98014.16;;;9.35;100.00
31771;BME280;18343;50.152;8.182;2023-04-08T08:30:15;98013.69;;;9.24;100.00
31771;BME280;18343;50.152;8.182;2023-04-08T08:33:29;98017.50;;;9.37;100.00
31771;BME280;18343;50.152;8.182;2023-04-08T08:36:22;98018.75;;;8.94;100.00
31771;BME280;18343;50.152;8.182;2023-04-08T08:39:25;98023.94;;;9.12;100.00
31771;BME280;18343;50.152;8.182;2023-04-08T08:42:24;98023.38;;;9.33;100.00
31771;BME280;18343;50.152;8.182;2023-04-08T08:45:12;98029.09;;;9.38;100.00
31771;BME280;18343;50.152;8.182;2023-04-08T08:48:12;98030.44;;;9.42;100.00
31771;BME280;18343;50.152;8.182;2023-04-08T08:51:16;98035.97;;;9.40;100.00
31771;BME280;18343;50.152;8.182;2023-04-08T08:54:02;98039.50;;;9.41;100.00
31771;BME280;18343;50.152;8.182;2023-04-08T08:56:52;98043.50;;;9.45;100.00
31771;BME280;18343;50.152;8.182;2023-04-08T08:59:47;98044.50;;;9.52;100.00
31771;BME280;18343;50.152;8.182;2023-04-08T09:02:33;98050.56;;;9.54;100.00
31771;BME280;18343;50.152;8.182;2023-04-08T09:05:25;98044.00;;;9.57;100.00
31771;BME280;18343;50.152;8.182;2023-04-08T09:08:28;98049.84;;;9.60;100.00
31771;BME280;18343;50.152;8.182;2023-04-08T09:11:16;98052.06;;;9.57;100.00
31771;BME280;18343;50.152;8.182;2023-04-08T09:14:02;98053.69;;;9.58;100.00
31771;BME280;18343;50.152;8.182;2023-04-08T09:16:56;98056.94;;;9.53;100.00
31771;BME280;18343;50.152;8.182;2023-04-08T09:20:14;98052.41;;;9.54;100.00
31771;BME280;18343;50.152;8.182;2023-04-08T09:23:13;98051.69;;;9.60;100.00
31771;BME280;18343;50.152;8.182;2023-04-08T09:26:12;98060.59;;;9.60;100.00
31771;BME280;18343;50.152;8.182;2023-04-08T09:29:35;98060.41;;;9.70;100.00
31771;BME280;18343;50.152;8.182;2023-04-08T09:32:52;98053.50;;;9.75;100.00
31771;BME280;18343;50.152;8.182;2023-04-08T09:39:24;98067.09;;;9.74;100.00
31771;BME280;18343;50.152;8.182;2023-04-08T09:42:40;98068.28;;;9.79;100.00
31771;BME280;18343;50.152;8.182;2023-04-08T09:48:00;98065.06;;;9.84;100.00
31771;BME280;18343;50.152;8.182;2023-04-08T09:49:22;98065.91;;;9.84;100.00
31771;BME280;18343;50.152;8.182;2023-04-08T09:52:18;98069.06;;;9.88;100.00
31771;BME280;18343;50.152;8.182;2023-04-08T09:55:24;98067.56;;;9.85;100.00
31771;BME280;18343;50.152;8.182;2023-04-08T09:58:24;98074.25;;;9.98;100.00
31771;BME280;18343;50.152;8.182;2023-04-08T10:01:18;98071.88;;;10.03;100.00
31771;BME280;18343;50.152;8.182;2023-04-08T10:04:42;98064.81;;;10.10;100.00
31771;BME280;18343;50.152;8.182;2023-04-08T10:07:55;98068.81;;;10.22;100.00
31771;BME280;18343;50.152;8.182;2023-04-08T10:10:48;98070.47;;;10.31;100.00
31771;BME280;18343;50.152;8.182;2023-04-08T10:13:41;98077.34;;;10.34;100.00
31771;BME280;18343;50.152;8.182;2023-04-08T10:16:36;98069.63;;;10.31;100.00
31771;BME280;18343;50.152;8.182;2023-04-08T10:19:59;98070.78;;;10.36;100.00
31771;BME280;18343;50.152;8.182;2023-04-08T10:22:58;98075.31;;;10.36;100.00
31771;BME280;18343;50.152;8.182;2023-04-08T10:25:55;98076.31;;;10.35;100.00
31771;BME280;18343;50.152;8.182;2023-04-08T10:29:33;98067.78;;;10.23;100.00
31771;BME280;18343;50.152;8.182;2023-04-08T10:32:28;98064.75;;;10.26;100.00
31771;BME280;18343;50.152;8.182;2023-04-08T10:35:26;98065.69;;;10.41;100.00
31771;BME280;18343;50.152;8.182;2023-04-08T10:38:13;98065.81;;;10.48;100.00
31771;BME280;18343;50.152;8.182;2023-04-08T10:41:09;98064.28;;;10.54;100.00
31771;BME280;18343;50.152;8.182;2023-04-08T10:44:03;98058.25;;;10.51;100.00
31771;BME280;18343;50.152;8.182;2023-04-08T10:46:51;98059.75;;;10.54;100.00
31771;BME280;18343;50.152;8.182;2023-04-08T10:49:50;98054.53;;;10.52;100.00
31771;BME280;18343;50.152;8.182;2023-04-08T10:52:48;98058.19;;;10.60;100.00
31771;BME280;18343;50.152;8.182;2023-04-08T10:55:33;98059.69;;;10.62;100.00
31771;BME280;18343;50.152;8.182;2023-04-08T10:58:22;98058.06;;;10.76;100.00
31771;BME280;18343;50.152;8.182;2023-04-08T11:01:12;98058.38;;;10.81;100.00
31771;BME280;18343;50.152;8.182;2023-04-08T11:04:14;98063.75;;;10.81;100.00
31771;BME280;18343;50.152;8.182;2023-04-08T11:07:10;98067.59;;;10.87;100.00
31771;BME280;18343;50.152;8.182;2023-04-08T11:10:10;98069.31;;;10.79;100.00
31771;BME280;18343;50.152;8.182;2023-04-08T11:12:57;98062.03;;;10.88;100.00
31771;BME280;18343;50.152;8.182;2023-04-08T11:15:45;98053.13;;;10.88;100.00
31771;BME280;18343;50.152;8.182;2023-04-08T11:18:49;98064.28;;;10.99;100.00
31771;BME280;18343;50.152;8.182;2023-04-08T11:21:42;98055.69;;;11.04;100.00
31771;BME280;18343;50.152;8.182;2023-04-08T11:24:28;98056.47;;;11.12;100.00
31771;BME280;18343;50.152;8.182;2023-04-08T11:27:02;98065.19;;;11.14;100.00
31771;BME280;18343;50.152;8.182;2023-04-08T11:29:36;98059.53;;;11.24;100.00
31771;BME280;18343;50.152;8.182;2023-04-08T11:32:07;98067.53;;;11.17;100.00
31771;BME280;18343;50.152;8.182;2023-04-08T11:34:41;98066.69;;;11.17;100.00
31771;BME280;18343;50.152;8.182;2023-04-08T11:37:14;98065.50;;;11.19;100.00
31771;BME280;18343;50.152;8.182;2023-04-08T11:39:47;98064.09;;;11.24;100.00
31771;BME280;18343;50.152;8.182;2023-04-08T11:42:30;98056.44;;;11.35;100.00
31771;BME280;18343;50.152;8.182;2023-04-08T11:45:01;98051.41;;;11.32;100.00
31771;BME280;18343;50.152;8.182;2023-04-08T11:47:39;98055.41;;;11.51;100.00
31771;BME280;18343;50.152;8.182;2023-04-08T11:50:10;98054.97;;;11.62;100.00
31771;BME280;18343;50.152;8.182;2023-04-08T11:52:45;98054.91;;;11.70;100.00
31771;BME280;18343;50.152;8.182;2023-04-08T11:55:25;98052.78;;;11.80;100.00
31771;BME280;18343;50.152;8.182;2023-04-08T11:58:01;98049.94;;;11.97;100.00
31771;BME280;18343;50.152;8.182;2023-04-08T12:00:44;98055.47;;;12.10;100.00
31771;BME280;18343;50.152;8.182;2023-04-08T12:03:19;98054.75;;;12.01;100.00
31771;BME280;18343;50.152;8.182;2023-04-08T12:05:49;98048.91;;;11.98;100.00
31771;BME280;18343;50.152;8.182;2023-04-08T12:08:26;98051.38;;;12.14;100.00
31771;BME280;18343;50.152;8.182;2023-04-08T12:10:56;98053.94;;;12.01;100.00
31771;BME280;18343;50.152;8.182;2023-04-08T12:13:28;98057.16;;;12.11;100.00
31771;BME280;18343;50.152;8.182;2023-04-08T12:15:56;98045.91;;;12.22;100.00
31771;BME280;18343;50.152;8.182;2023-04-08T12:18:30;98043.94;;;12.31;100.00
31771;BME280;18343;50.152;8.182;2023-04-08T12:21:01;98045.69;;;12.38;100.00
31771;BME280;18343;50.152;8.182;2023-04-08T12:23:30;98042.34;;;12.36;100.00
31771;BME280;18343;50.152;8.182;2023-04-08T12:26:01;98038.59;;;12.37;100.00
31771;BME280;18343;50.152;8.182;2023-04-08T12:28:35;98043.44;;;12.42;100.00
31771;BME280;18343;50.152;8.182;2023-04-08T12:31:04;98042.41;;;12.43;100.00
31771;BME280;18343;50.152;8.182;2023-04-08T12:33:58;98039.63;;;12.36;100.00
31771;BME280;18343;50.152;8.182;2023-04-08T12:36:32;98043.63;;;12.40;100.00
31771;BME280;18343;50.152;8.182;2023-04-08T12:39:00;98036.66;;;12.46;100.00
31771;BME280;18343;50.152;8.182;2023-04-08T12:41:37;98043.03;;;12.24;100.00
31771;BME280;18343;50.152;8.182;2023-04-08T12:44:21;98044.75;;;12.46;100.00
31771;BME280;18343;50.152;8.182;2023-04-08T12:46:48;98050.22;;;12.52;100.00
31771;BME280;18343;50.152;8.182;2023-04-08T12:49:22;98041.56;;;12.57;100.00
31771;BME280;18343;50.152;8.182;2023-04-08T12:51:50;98033.88;;;12.61;100.00
31771;BME280;18343;50.152;8.182;2023-04-08T12:54:21;98037.97;;;12.71;100.00
31771;BME280;18343;50.152;8.182;2023-04-08T12:56:52;98038.81;;;12.72;100.00
31771;BME280;18343;50.152;8.182;2023-04-08T12:59:30;98037.78;;;12.73;100.00
31771;BME280;18343;50.152;8.182;2023-04-08T13:02:00;98034.50;;;12.77;100.00
31771;BME280;18343;50.152;8.182;2023-04-08T13:04:28;98035.47;;;12.91;100.00
31771;BME280;18343;50.152;8.182;2023-04-08T13:06:56;98033.59;;;12.92;100.00
31771;BME280;18343;50.152;8.182;2023-04-08T13:09:26;98040.84;;;12.91;100.00
31771;BME280;18343;50.152;8.182;2023-04-08T13:12:01;98044.78;;;12.88;100.00
31771;BME280;18343;50.152;8.182;2023-04-08T13:14:50;98040.53;;;12.79;100.00
31771;BME280;18343;50.152;8.182;2023-04-08T13:17:34;98042.25;;;12.87;100.00
31771;BME280;18343;50.152;8.182;2023-04-08T13:20:13;98048.88;;;12.63;100.00
31771;BME280;18343;50.152;8.182;2023-04-08T13:22:46;98042.16;;;12.74;100.00
31771;BME280;18343;50.152;8.182;2023-04-08T13:25:16;98039.72;;;12.79;100.00
31771;BME280;18343;50.152;8.182;2023-04-08T13:27:50;98042.06;;;12.88;100.00
31771;BME280;18343;50.152;8.182;2023-04-08T13:30:24;98043.56;;;12.91;100.00
31771;BME280;18343;50.152;8.182;2023-04-08T13:33:01;98033.72;;;13.05;100.00
31771;BME280;18343;50.152;8.182;2023-04-08T13:35:37;98039.63;;;13.15;100.00
31771;BME280;18343;50.152;8.182;2023-04-08T13:38:15;98041.84;;;13.05;100.00
31771;BME280;18343;50.152;8.182;2023-04-08T13:40:57;98044.19;;;12.93;100.00
31771;BME280;18343;50.152;8.182;2023-04-08T13:43:30;98048.00;;;12.99;100.00
31771;BME280;18343;50.152;8.182;2023-04-08T13:45:59;98044.16;;;13.08;100.00
31771;BME280;18343;50.152;8.182;2023-04-08T13:48:34;98046.28;;;13.12;100.00
31771;BME280;18343;50.152;8.182;2023-04-08T13:51:05;98044.28;;;13.00;100.00
31771;BME280;18343;50.152;8.182;2023-04-08T13:53:45;98045.50;;;12.97;100.00
31771;BME280;18343;50.152;8.182;2023-04-08T13:56:21;98052.06;;;13.09;100.00
31771;BME280;18343;50.152;8.182;2023-04-08T13:58:50;98051.44;;;13.14;100.00
31771;BME280;18343;50.152;8.182;2023-04-08T14:01:24;98049.88;;;13.19;100.00
31771;BME280;18343;50.152;8.182;2023-04-08T14:03:56;98051.28;;;12.94;100.00
31771;BME280;18343;50.152;8.182;2023-04-08T14:06:27;98042.03;;;13.03;100.00
31771;BME280;18343;50.152;8.182;2023-04-08T14:08:59;98048.22;;;13.18;100.00
31771;BME280;18343;50.152;8.182;2023-04-08T14:11:32;98052.72;;;13.33;100.00
31771;BME280;18343;50.152;8.182;2023-04-08T14:14:09;98053.34;;;13.35;100.00
31771;BME280;18343;50.152;8.182;2023-04-08T14:16:53;98053.47;;;13.05;100.00
31771;BME280;18343;50.152;8.182;2023-04-08T14:19:25;98056.44;;;13.10;100.00
31771;BME280;18343;50.152;8.182;2023-04-08T14:21:54;98055.16;;;13.06;100.00
31771;BME280;18343;50.152;8.182;2023-04-08T14:24:29;98059.50;;;12.86;100.00
31771;BME280;18343;50.152;8.182;2023-04-08T14:27:00;98056.38;;;12.82;100.00
31771;BME280;18343;50.152;8.182;2023-04-08T14:29:34;98048.06;;;12.84;100.00
31771;BME280;18343;50.152;8.182;2023-04-08T14:32:06;98052.00;;;12.81;100.00
31771;BME280;18343;50.152;8.182;2023-04-08T14:34:37;98045.13;;;12.79;100.00
31771;BME280;18343;50.152;8.182;2023-04-08T14:37:07;98053.59;;;12.76;100.00
31771;BME280;18343;50.152;8.182;2023-04-08T14:39:35;98058.78;;;12.77;100.00
31771;BME280;18343;50.152;8.182;2023-04-08T14:42:05;98054.91;;;12.65;100.00
31771;BME280;18343;50.152;8.182;2023-04-08T14:44:35;98051.91;;;12.39;100.00
31771;BME280;18343;50.152;8.182;2023-04-08T14:47:04;98045.56;;;12.46;100.00
31771;BME280;18343;50.152;8.182;2023-04-08T14:49:36;98043.00;;;12.60;100.00
31771;BME280;18343;50.152;8.182;2023-04-08T14:52:04;98046.06;;;12.71;100.00
31771;BME280;18343;50.152;8.182;2023-04-08T14:54:47;98052.00;;;12.81;100.00
31771;BME280;18343;50.152;8.182;2023-04-08T14:57:24;98052.81;;;12.82;100.00
31771;BME280;18343;50.152;8.182;2023-04-08T14:59:55;98043.44;;;12.78;100.00
31771;BME280;18343;50.152;8.182;2023-04-08T15:02:24;98044.91;;;12.80;100.00
31771;BME280;18343;50.152;8.182;2023-04-08T15:04:54;98052.03;;;12.88;100.00
31771;BME280;18343;50.152;8.182;2023-04-08T15:07:24;98045.22;;;12.92;100.00
31771;BME280;18343;50.152;8.182;2023-04-08T15:09:55;98047.53;;;12.95;100.00